Time;durP1;ratioP1;P1;durP2;ratioP2;P2;SDS_P1;SDS_P2;PMS_P1;PMS_P2;Temp;Humidity;BMP_temperature;BMP_pressure;BME280_temperature;BME280_humidity;BME280_pressure;Samples;Min_cycle;Max_cycle;Signal;HPM_P1;HPM_P2
2023/09/20 00:01:12;;;;;;;8.93;2.83;;;;;;;;;;5033690;28;20257;-69
2023/09/20 00:03:39;;;;;;;4.77;2.60;;;;;;;;;;5032288;28;20272;-69
2023/09/20 00:06:06;;;;;;;7.10;2.57;;;;;;;;;;5047345;28;20175;-70
2023/09/20 00:08:34;;;;;;;8.50;2.60;;;;;;;;;;5053331;28;20617;-69
2023/09/20 00:11:00;;;;;;;7.17;2.70;;;;;;;;;;5040673;28;20191;-69
2023/09/20 00:13:26;;;;;;;7.27;2.83;;;;;;;;;;5033915;28;20183;-69
2023/09/20 00:15:55;;;;;;;9.30;2.83;;;;;;;;;;5032730;28;20186;-69
2023/09/20 00:18:23;;;;;;;6.40;2.73;;;;;;;;;;5033910;28;20182;-69
2023/09/20 00:20:49;;;;;;;5.87;2.70;;;;;;;;;;5033700;28;20199;-69
2023/09/20 00:23:21;;;;;;;3.43;2.33;;;;;;;;;;5033752;28;20286;-69
2023/09/20 00:25:49;;;;;;;11.97;3.10;;;;;;;;;;5042232;28;20585;-70
2023/09/20 00:28:17;;;;;;;5.77;2.80;;;;;;;;;;5046402;28;20178;-70
2023/09/20 00:30:45;;;;;;;6.73;2.67;;;;;;;;;;5044443;28;20572;-68
2023/09/20 00:33:11;;;;;;;8.53;2.63;;;;;;;;;;5045277;28;20255;-69
2023/09/20 00:35:39;;;;;;;13.03;2.43;;;;;;;;;;5040379;28;20219;-70
2023/09/20 00:38:05;;;;;;;8.70;2.90;;;;;;;;;;5038023;28;20250;-70
2023/09/20 00:40:32;;;;;;;5.23;2.50;;;;;;;;;;5037467;28;20191;-69
2023/09/20 00:42:58;;;;;;;7.03;2.70;;;;;;;;;;5036019;28;20203;-70
2023/09/20 00:45:25;;;;;;;7.50;3.00;;;;;;;;;;5037605;28;20182;-68
2023/09/20 00:47:55;;;;;;;6.80;3.00;;;;;;;;;;5043030;28;20179;-69
2023/09/20 00:50:22;;;;;;;9.03;3.00;;;;;;;;;;5052338;28;20209;-70
2023/09/20 00:52:51;;;;;;;7.97;2.70;;;;;;;;;;5040350;28;20206;-70
2023/09/20 00:55:20;;;;;;;8.73;2.63;;;;;;;;;;5038349;28;20186;-69
2023/09/20 00:57:47;;;;;;;7.77;3.00;;;;;;;;;;5038378;28;20625;-69
2023/09/20 01:00:21;;;;;;;6.37;2.40;;;;;;;;;;5035563;28;20223;-69
2023/09/20 01:02:51;;;;;;;4.50;2.37;;;;;;;;;;5035253;28;20195;-70
2023/09/20 01:05:25;;;;;;;14.23;2.83;;;;;;;;;;5035447;28;20183;-69
2023/09/20 01:07:55;;;;;;;6.53;2.57;;;;;;;;;;5037024;28;20174;-69
2023/09/20 01:10:24;;;;;;;7.83;2.60;;;;;;;;;;5035812;28;20199;-69
2023/09/20 01:12:53;;;;;;;7.33;2.50;;;;;;;;;;5036822;28;20179;-71
2023/09/20 01:15:21;;;;;;;7.93;2.77;;;;;;;;;;5036933;28;20668;-69
2023/09/20 01:17:47;;;;;;;7.50;2.30;;;;;;;;;;5035516;28;20191;-70
2023/09/20 01:20:14;;;;;;;9.00;2.80;;;;;;;;;;5036422;28;20677;-70
2023/09/20 01:22:40;;;;;;;7.07;3.10;;;;;;;;;;5035075;28;20703;-70
2023/09/20 01:25:09;;;;;;;8.37;2.63;;;;;;;;;;5034929;28;20179;-69
2023/09/20 01:27:37;;;;;;;5.50;2.77;;;;;;;;;;5036362;28;20588;-69
2023/09/20 01:30:03;;;;;;;8.07;2.67;;;;;;;;;;5035107;28;20195;-70
2023/09/20 01:32:29;;;;;;;6.03;2.40;;;;;;;;;;5036351;28;20179;-69
2023/09/20 01:34:56;;;;;;;5.57;2.50;;;;;;;;;;5036102;28;20171;-70
2023/09/20 01:37:22;;;;;;;6.83;3.07;;;;;;;;;;5036087;28;20234;-69
2023/09/20 01:39:48;;;;;;;6.80;3.03;;;;;;;;;;5034455;28;20680;-69
2023/09/20 01:42:15;;;;;;;6.03;2.40;;;;;;;;;;5035682;28;20239;-69
2023/09/20 01:44:41;;;;;;;5.37;2.53;;;;;;;;;;5036155;28;20587;-69
2023/09/20 01:47:07;;;;;;;6.40;2.97;;;;;;;;;;5035828;28;20179;-67
2023/09/20 01:49:34;;;;;;;5.30;2.60;;;;;;;;;;5034239;28;20196;-69
2023/09/20 01:52:00;;;;;;;5.07;2.60;;;;;;;;;;5034213;28;20175;-69
2023/09/20 01:54:28;;;;;;;4.73;2.40;;;;;;;;;;5035684;28;20183;-69
2023/09/20 01:56:55;;;;;;;10.00;3.23;;;;;;;;;;5035717;28;20677;-70
2023/09/20 01:59:24;;;;;;;7.43;3.37;;;;;;;;;;5035366;28;20703;-69
2023/09/20 02:01:50;;;;;;;5.97;2.63;;;;;;;;;;5035785;28;20606;-69
2023/09/20 02:04:17;;;;;;;8.20;2.90;;;;;;;;;;5034080;28;20190;-69
2023/09/20 02:06:43;;;;;;;9.57;3.47;;;;;;;;;;5034192;28;20179;-69
2023/09/20 02:09:09;;;;;;;7.27;3.13;;;;;;;;;;5035376;28;20573;-70
2023/09/20 02:11:35;;;;;;;8.07;2.97;;;;;;;;;;5035443;28;20245;-69
2023/09/20 02:14:01;;;;;;;8.77;2.60;;;;;;;;;;5034116;28;20179;-69
2023/09/20 02:16:27;;;;;;;10.43;2.90;;;;;;;;;;5035033;28;20249;-69
2023/09/20 02:18:53;;;;;;;8.13;2.70;;;;;;;;;;5035511;28;20179;-70
2023/09/20 02:21:19;;;;;;;6.27;3.07;;;;;;;;;;5033718;28;20675;-69
2023/09/20 02:23:45;;;;;;;4.93;2.63;;;;;;;;;;5035312;28;20230;-71
2023/09/20 02:26:12;;;;;;;6.27;2.77;;;;;;;;;;5033867;28;20179;-71
2023/09/20 02:28:38;;;;;;;5.43;2.93;;;;;;;;;;5033715;28;20202;-69
2023/09/20 02:31:05;;;;;;;5.73;2.90;;;;;;;;;;5035002;28;20661;-69
2023/09/20 02:33:31;;;;;;;7.27;2.60;;;;;;;;;;5033693;28;20183;-69
2023/09/20 02:35:57;;;;;;;6.87;2.93;;;;;;;;;;5035153;28;20183;-69
2023/09/20 02:38:23;;;;;;;9.70;3.30;;;;;;;;;;5035254;28;20186;-70
2023/09/20 02:40:50;;;;;;;5.17;2.90;;;;;;;;;;5034955;28;20206;-69
2023/09/20 02:43:16;;;;;;;7.20;2.67;;;;;;;;;;5035177;28;20324;-69
2023/09/20 02:45:45;;;;;;;7.07;2.97;;;;;;;;;;5035346;28;20201;-69
2023/09/20 02:48:12;;;;;;;6.60;3.13;;;;;;;;;;5044322;28;20190;-70
2023/09/20 02:50:41;;;;;;;8.00;3.07;;;;;;;;;;5052545;28;20209;-69
2023/09/20 02:53:07;;;;;;;10.87;3.40;;;;;;;;;;5049616;28;20557;-70
2023/09/20 02:55:34;;;;;;;7.50;2.80;;;;;;;;;;5033968;28;20183;-70
2023/09/20 02:58:00;;;;;;;8.37;3.20;;;;;;;;;;5035239;28;20178;-70
2023/09/20 03:00:31;;;;;;;7.60;3.33;;;;;;;;;;5046296;28;20225;-69
2023/09/20 03:02:58;;;;;;;7.17;2.70;;;;;;;;;;5045202;28;20266;-69
2023/09/20 03:05:27;;;;;;;12.93;3.57;;;;;;;;;;5046324;28;20179;-70
2023/09/20 03:07:54;;;;;;;9.77;3.33;;;;;;;;;;5036437;28;20176;-70
2023/09/20 03:10:21;;;;;;;7.43;3.30;;;;;;;;;;5044102;28;20191;-69
2023/09/20 03:12:51;;;;;;;7.83;3.00;;;;;;;;;;5048596;28;20187;-69
2023/09/20 03:15:19;;;;;;;6.47;3.37;;;;;;;;;;5049383;28;20186;-69
2023/09/20 03:17:45;;;;;;;8.90;3.10;;;;;;;;;;5047979;28;20657;-69
2023/09/20 03:20:12;;;;;;;6.10;2.87;;;;;;;;;;5038869;28;20202;-70
2023/09/20 03:22:38;;;;;;;9.23;3.30;;;;;;;;;;5057987;22;20715;-67
2023/09/20 03:25:04;;;;;;;11.03;3.10;;;;;;;;;;5031928;28;20190;-66
2023/09/20 03:27:31;;;;;;;8.93;3.23;;;;;;;;;;5033046;28;20171;-67
2023/09/20 03:29:57;;;;;;;4.90;3.10;;;;;;;;;;5032928;28;20555;-67
2023/09/20 03:32:23;;;;;;;8.27;2.97;;;;;;;;;;5032951;28;20206;-66
2023/09/20 03:34:50;;;;;;;8.33;3.10;;;;;;;;;;5032917;28;20182;-66
2023/09/20 03:37:18;;;;;;;13.00;3.60;;;;;;;;;;5031700;28;20183;-67
2023/09/20 03:39:46;;;;;;;5.57;3.00;;;;;;;;;;5033302;28;20175;-66
2023/09/20 03:42:12;;;;;;;9.23;3.20;;;;;;;;;;5033360;28;20209;-67
2023/09/20 03:44:41;;;;;;;10.23;3.37;;;;;;;;;;5033177;28;20175;-67
2023/09/20 03:47:07;;;;;;;12.03;3.93;;;;;;;;;;5032871;28;20177;-67
2023/09/20 03:49:33;;;;;;;6.40;2.70;;;;;;;;;;5032910;28;20175;-66
2023/09/20 03:52:00;;;;;;;9.30;3.33;;;;;;;;;;5032673;28;20633;-67
2023/09/20 03:54:26;;;;;;;5.63;2.87;;;;;;;;;;5032713;28;20179;-67
2023/09/20 03:56:52;;;;;;;9.47;3.07;;;;;;;;;;5031418;28;20179;-67
2023/09/20 03:59:19;;;;;;;11.10;3.30;;;;;;;;;;5034844;28;20233;-67
2023/09/20 04:01:44;;;;;;;10.40;3.30;;;;;;;;;;5035350;28;20243;-67
2023/09/20 04:04:10;;;;;;;6.93;3.43;;;;;;;;;;5037025;28;20237;-67
2023/09/20 04:06:37;;;;;;;7.53;3.00;;;;;;;;;;5036643;28;20175;-66
2023/09/20 04:09:10;;;;;;;11.37;3.53;;;;;;;;;;5036844;28;20175;-67
2023/09/20 04:11:40;;;;;;;7.93;2.93;;;;;;;;;;5036722;28;20195;-67
2023/09/20 04:14:09;;;;;;;5.27;2.87;;;;;;;;;;5036836;28;20262;-67
2023/09/20 04:16:40;;;;;;;6.23;3.17;;;;;;;;;;5036724;28;20186;-67
2023/09/20 04:19:06;;;;;;;6.77;3.10;;;;;;;;;;5035970;28;20266;-67
2023/09/20 04:21:32;;;;;;;7.23;3.10;;;;;;;;;;5037003;28;20285;-67
2023/09/20 04:24:03;;;;;;;6.93;3.07;;;;;;;;;;5035213;28;20206;-67
2023/09/20 04:26:29;;;;;;;9.93;3.23;;;;;;;;;;5035037;28;20167;-66
2023/09/20 04:28:55;;;;;;;6.90;2.80;;;;;;;;;;5036812;28;20661;-67
2023/09/20 04:31:22;;;;;;;8.47;3.50;;;;;;;;;;5036248;28;20195;-67
2023/09/20 04:33:48;;;;;;;6.30;2.73;;;;;;;;;;5036409;28;20175;-66
2023/09/20 04:36:15;;;;;;;10.87;3.27;;;;;;;;;;5036090;28;20748;-67
2023/09/20 04:38:41;;;;;;;7.87;3.00;;;;;;;;;;5036797;28;20266;-66
2023/09/20 04:41:11;;;;;;;6.60;2.97;;;;;;;;;;5036035;28;20234;-66
2023/09/20 04:43:38;;;;;;;8.43;2.87;;;;;;;;;;5034899;28;20202;-67
2023/09/20 04:46:04;;;;;;;6.33;2.87;;;;;;;;;;5036789;28;20266;-67
2023/09/20 04:48:31;;;;;;;8.00;3.10;;;;;;;;;;5035854;28;20210;-67
2023/09/20 04:50:57;;;;;;;8.60;3.47;;;;;;;;;;5034508;28;20687;-66
2023/09/20 04:53:23;;;;;;;5.20;3.27;;;;;;;;;;5034508;28;20214;-67
2023/09/20 04:55:49;;;;;;;7.83;3.07;;;;;;;;;;5036001;28;20547;-66
2023/09/20 04:58:17;;;;;;;7.30;2.63;;;;;;;;;;5035815;28;20550;-67
2023/09/20 05:00:43;;;;;;;10.40;2.87;;;;;;;;;;5035955;28;20198;-67
2023/09/20 05:03:11;;;;;;;9.63;3.53;;;;;;;;;;5036344;28;20599;-66
2023/09/20 05:05:37;;;;;;;7.40;2.70;;;;;;;;;;5034327;28;20649;-66
2023/09/20 05:08:06;;;;;;;5.10;2.80;;;;;;;;;;5034469;28;20186;-66
2023/09/20 05:10:32;;;;;;;8.07;3.07;;;;;;;;;;5035088;28;20557;-67
2023/09/20 05:12:58;;;;;;;6.53;2.83;;;;;;;;;;5034076;28;20689;-66
2023/09/20 05:15:24;;;;;;;7.97;3.20;;;;;;;;;;5035765;28;20229;-67
2023/09/20 05:17:51;;;;;;;7.33;2.93;;;;;;;;;;5034134;28;20189;-67
2023/09/20 05:20:17;;;;;;;8.20;3.00;;;;;;;;;;5035623;28;20175;-66
2023/09/20 05:22:42;;;;;;;11.73;3.50;;;;;;;;;;5035101;28;20750;-66
2023/09/20 05:25:09;;;;;;;13.03;3.73;;;;;;;;;;5035628;28;20172;-66
2023/09/20 05:27:35;;;;;;;8.60;4.00;;;;;;;;;;5034003;28;20182;-67
2023/09/20 05:30:01;;;;;;;9.03;3.80;;;;;;;;;;5035129;28;20242;-65
2023/09/20 05:32:27;;;;;;;7.53;3.73;;;;;;;;;;5035094;28;20672;-65
2023/09/20 05:34:53;;;;;;;8.83;3.57;;;;;;;;;;5035491;28;20183;-64
2023/09/20 05:37:19;;;;;;;7.90;3.83;;;;;;;;;;5035164;28;20186;-66
2023/09/20 05:39:48;;;;;;;8.63;3.87;;;;;;;;;;5033803;28;20668;-66
2023/09/20 05:42:14;;;;;;;9.90;4.47;;;;;;;;;;5033494;28;20217;-66
2023/09/20 05:44:40;;;;;;;22.07;13.87;;;;;;;;;;5033648;28;20186;-66
2023/09/20 05:47:09;;;;;;;13.43;6.13;;;;;;;;;;5033596;28;20175;-65
2023/09/20 05:49:35;;;;;;;13.90;6.27;;;;;;;;;;5035132;28;20186;-65
2023/09/20 05:52:06;;;;;;;13.37;6.50;;;;;;;;;;5033455;28;20195;-66
2023/09/20 05:54:32;;;;;;;16.77;8.43;;;;;;;;;;5034708;28;20238;-65
2023/09/20 05:57:02;;;;;;;25.13;13.23;;;;;;;;;;5033482;28;20261;-65
2023/09/20 05:59:29;;;;;;;13.13;7.47;;;;;;;;;;5033310;28;20179;-66
2023/09/20 06:01:55;;;;;;;7.83;4.60;;;;;;;;;;5033186;28;20210;-65
2023/09/20 06:04:21;;;;;;;11.77;4.13;;;;;;;;;;5035038;28;20262;-66
2023/09/20 06:06:47;;;;;;;7.80;4.47;;;;;;;;;;5034439;28;20603;-66
2023/09/20 06:09:14;;;;;;;9.77;5.63;;;;;;;;;;5033135;28;20179;-65
2023/09/20 06:11:40;;;;;;;9.30;5.43;;;;;;;;;;5033527;28;20226;-65
2023/09/20 06:14:06;;;;;;;7.27;3.97;;;;;;;;;;5034343;28;20171;-66
2023/09/20 06:16:32;;;;;;;7.80;3.77;;;;;;;;;;5034241;28;20163;-66
2023/09/20 06:18:58;;;;;;;5.10;3.50;;;;;;;;;;5034242;28;20179;-66
2023/09/20 06:21:24;;;;;;;15.13;4.53;;;;;;;;;;5032431;28;20708;-66
2023/09/20 06:23:50;;;;;;;13.30;3.47;;;;;;;;;;5032168;28;20297;-66
2023/09/20 06:26:16;;;;;;;4.90;2.87;;;;;;;;;;5034320;28;20211;-66
2023/09/20 06:28:42;;;;;;;7.87;3.77;;;;;;;;;;5032762;28;20229;-65
2023/09/20 06:31:17;;;;;;;8.20;3.10;;;;;;;;;;5032736;28;20195;-65
2023/09/20 06:33:44;;;;;;;9.23;3.00;;;;;;;;;;5032625;28;20258;-65
2023/09/20 06:36:16;;;;;;;8.67;2.93;;;;;;;;;;5033849;28;20179;-65
2023/09/20 06:38:42;;;;;;;5.70;2.60;;;;;;;;;;5034172;28;20542;-66
2023/09/20 06:41:08;;;;;;;6.97;2.97;;;;;;;;;;5033756;28;20203;-67
2023/09/20 06:43:36;;;;;;;5.67;3.17;;;;;;;;;;5032360;28;20207;-65
2023/09/20 06:46:03;;;;;;;6.70;3.27;;;;;;;;;;5033736;28;20223;-65
2023/09/20 06:48:29;;;;;;;6.70;3.20;;;;;;;;;;5033574;28;20586;-66
2023/09/20 06:50:55;;;;;;;7.07;3.37;;;;;;;;;;5033606;28;20175;-65
2023/09/20 06:53:25;;;;;;;9.77;3.40;;;;;;;;;;5032294;28;20187;-65
2023/09/20 06:55:51;;;;;;;6.40;3.07;;;;;;;;;;5032256;28;20186;-65
2023/09/20 06:58:18;;;;;;;11.93;4.93;;;;;;;;;;5033537;28;20179;-66
2023/09/20 07:00:44;;;;;;;8.10;4.13;;;;;;;;;;5033780;28;20248;-66
2023/09/20 07:03:10;;;;;;;12.13;6.53;;;;;;;;;;5032122;28;20210;-65
2023/09/20 07:05:36;;;;;;;14.03;7.13;;;;;;;;;;5032117;28;20179;-65
2023/09/20 07:08:04;;;;;;;11.87;7.40;;;;;;;;;;5033460;28;20179;-66
2023/09/20 07:10:36;;;;;;;27.33;15.23;;;;;;;;;;5032154;28;20186;-66
2023/09/20 07:13:05;;;;;;;10.50;5.70;;;;;;;;;;5033264;28;20199;-66
2023/09/20 07:15:34;;;;;;;9.53;5.50;;;;;;;;;;5033356;28;20175;-66
2023/09/20 07:18:01;;;;;;;9.80;4.00;;;;;;;;;;5033781;28;20175;-66
2023/09/20 07:20:28;;;;;;;7.83;4.10;;;;;;;;;;5033442;28;20186;-67
2023/09/20 07:22:54;;;;;;;8.50;3.70;;;;;;;;;;5033072;28;20211;-66
2023/09/20 07:25:20;;;;;;;5.40;3.40;;;;;;;;;;5031683;28;20189;-65
2023/09/20 07:27:47;;;;;;;7.93;3.20;;;;;;;;;;5033146;28;20187;-66
2023/09/20 07:30:18;;;;;;;5.30;3.07;;;;;;;;;;5033639;28;20187;-66
2023/09/20 07:32:45;;;;;;;8.73;3.83;;;;;;;;;;5033247;28;20203;-66
2023/09/20 07:35:26;;;;;;;5.93;3.40;;;;;;;;;;5032877;28;20179;-65
2023/09/20 07:37:57;;;;;;;11.03;5.40;;;;;;;;;;5033137;28;20533;-66
2023/09/20 07:40:33;;;;;;;8.80;4.60;;;;;;;;;;5031724;28;20175;-66
2023/09/20 07:42:59;;;;;;;7.27;4.33;;;;;;;;;;5031380;28;20217;-68
2023/09/20 07:45:27;;;;;;;12.07;5.87;;;;;;;;;;5031771;28;20290;-67
2023/09/20 07:47:53;;;;;;;11.23;6.23;;;;;;;;;;5031842;28;20175;-67
2023/09/20 07:50:19;;;;;;;17.77;7.50;;;;;;;;;;5032981;28;20227;-67
2023/09/20 07:52:45;;;;;;;20.10;9.17;;;;;;;;;;5032853;28;20253;-67
2023/09/20 07:55:11;;;;;;;12.93;7.10;;;;;;;;;;5031524;28;20182;-67
2023/09/20 07:57:38;;;;;;;17.83;8.27;;;;;;;;;;5032968;28;20267;-67
2023/09/20 08:00:07;;;;;;;18.73;8.87;;;;;;;;;;5033204;28;20238;-67
2023/09/20 08:02:33;;;;;;;18.80;9.10;;;;;;;;;;5032623;28;20211;-67
2023/09/20 08:04:59;;;;;;;25.23;8.90;;;;;;;;;;5033128;28;20202;-67
2023/09/20 08:07:25;;;;;;;15.70;9.13;;;;;;;;;;5032739;28;20186;-67
2023/09/20 08:09:52;;;;;;;17.80;8.67;;;;;;;;;;5031315;28;20176;-67
2023/09/20 08:12:18;;;;;;;14.53;8.37;;;;;;;;;;5031324;28;20217;-67
2023/09/20 08:14:43;;;;;;;22.50;8.73;;;;;;;;;;5032938;28;20636;-67
2023/09/20 08:19:54;;;;;;;13.50;5.83;;;;;;;;;;5032972;28;20174;-67
2023/09/20 08:22:20;;;;;;;12.83;5.70;;;;;;;;;;5032330;28;20218;-67
2023/09/20 09:00:34;;;;;;;7.37;3.80;;;;;;;;;;5036073;28;20174;-67
2023/09/20 09:03:05;;;;;;;3.07;2.70;;;;;;;;;;5036105;28;20640;-66
2023/09/20 09:05:31;;;;;;;7.27;3.83;;;;;;;;;;5035931;28;20573;-67
2023/09/20 09:07:58;;;;;;;9.33;3.80;;;;;;;;;;5034402;28;20687;-66
2023/09/20 09:10:25;;;;;;;11.50;3.63;;;;;;;;;;5036063;28;20626;-67
2023/09/20 09:12:51;;;;;;;6.83;2.80;;;;;;;;;;5034540;28;20276;-67
2023/09/20 09:15:17;;;;;;;5.00;3.00;;;;;;;;;;5036176;28;20677;-66
2023/09/20 09:17:44;;;;;;;6.53;2.67;;;;;;;;;;5036308;28;20175;-67
2023/09/20 09:20:11;;;;;;;8.33;4.43;;;;;;;;;;5036333;28;20653;-66
2023/09/20 09:22:38;;;;;;;4.00;3.03;;;;;;;;;;5035462;28;20249;-66
2023/09/20 09:25:08;;;;;;;5.40;3.30;;;;;;;;;;5035778;28;20182;-66
2023/09/20 09:27:36;;;;;;;5.07;2.90;;;;;;;;;;5034311;28;20716;-66
2023/09/20 09:30:02;;;;;;;5.93;3.37;;;;;;;;;;5035550;28;20179;-66
2023/09/20 09:32:35;;;;;;;8.97;3.63;;;;;;;;;;5034121;28;20206;-67
2023/09/20 09:35:03;;;;;;;5.80;3.20;;;;;;;;;;5035920;28;20209;-66
2023/09/20 09:37:31;;;;;;;9.47;3.93;;;;;;;;;;5036019;28;20197;-67
2023/09/20 09:40:01;;;;;;;8.87;3.80;;;;;;;;;;5033713;28;20197;-67
2023/09/20 09:42:28;;;;;;;11.40;5.47;;;;;;;;;;5033492;28;20225;-67
2023/09/20 09:44:55;;;;;;;16.27;6.87;;;;;;;;;;5035093;28;20182;-67
2023/09/20 09:47:21;;;;;;;8.03;5.17;;;;;;;;;;5035033;28;20186;-67
2023/09/20 09:49:51;;;;;;;7.60;5.17;;;;;;;;;;5033565;28;20233;-68
2023/09/20 09:52:23;;;;;;;7.60;4.90;;;;;;;;;;5033694;28;20195;-67
2023/09/20 09:54:50;;;;;;;5.63;3.53;;;;;;;;;;5033534;28;20175;-66
2023/09/20 09:57:18;;;;;;;7.00;3.60;;;;;;;;;;5034806;28;20201;-67
2023/09/20 09:59:44;;;;;;;7.87;3.50;;;;;;;;;;5035308;28;20657;-66
2023/09/20 10:02:17;;;;;;;7.63;2.87;;;;;;;;;;5033633;28;20288;-68
2023/09/20 10:04:50;;;;;;;7.63;3.03;;;;;;;;;;5034875;28;20186;-67
2023/09/20 10:07:19;;;;;;;6.17;2.73;;;;;;;;;;5035152;28;20155;-67
2023/09/20 10:09:48;;;;;;;6.23;2.80;;;;;;;;;;5034509;28;20171;-66
2023/09/20 10:12:15;;;;;;;8.13;2.83;;;;;;;;;;5033170;28;20207;-66
2023/09/20 10:14:42;;;;;;;6.53;2.93;;;;;;;;;;5034330;28;20229;-66
2023/09/20 10:17:08;;;;;;;5.07;2.73;;;;;;;;;;5034627;28;20221;-66
2023/09/20 10:19:36;;;;;;;6.67;3.30;;;;;;;;;;5034407;28;20589;-66
2023/09/20 10:22:13;;;;;;;6.17;2.80;;;;;;;;;;5032816;28;20211;-67
2023/09/20 10:24:53;;;;;;;2.87;2.20;;;;;;;;;;5034373;28;20289;-67
2023/09/20 10:27:21;;;;;;;3.97;2.17;;;;;;;;;;5034429;28;20155;-67
2023/09/20 10:30:09;;;;;;;5.60;2.40;;;;;;;;;;5033429;28;20179;-67
2023/09/20 10:32:38;;;;;;;3.13;2.10;;;;;;;;;;5035516;28;20248;-68
2023/09/20 10:35:23;;;;;;;5.77;2.87;;;;;;;;;;5033477;28;20179;-68
2023/09/20 10:37:59;;;;;;;6.27;2.77;;;;;;;;;;5033355;28;20189;-67
2023/09/20 10:40:45;;;;;;;6.90;2.50;;;;;;;;;;5033200;28;20641;-67
2023/09/20 10:43:15;;;;;;;6.67;2.43;;;;;;;;;;5032618;28;20284;-67
2023/09/20 10:45:41;;;;;;;4.53;2.30;;;;;;;;;;5033781;28;20187;-67
2023/09/20 10:48:12;;;;;;;3.63;2.30;;;;;;;;;;5032364;28;20188;-67
2023/09/20 10:50:48;;;;;;;8.07;3.10;;;;;;;;;;5033764;28;20175;-67
2023/09/20 10:53:14;;;;;;;4.13;2.57;;;;;;;;;;5033988;28;20179;-67
2023/09/20 10:55:40;;;;;;;14.23;3.67;;;;;;;;;;5033908;28;20183;-67
2023/09/20 10:58:07;;;;;;;7.40;2.73;;;;;;;;;;5032475;28;20229;-67
2023/09/20 11:00:34;;;;;;;6.70;3.40;;;;;;;;;;5032377;28;20711;-68
2023/09/20 11:03:04;;;;;;;7.47;3.20;;;;;;;;;;5033455;28;20225;-67
2023/09/20 11:05:30;;;;;;;7.77;3.70;;;;;;;;;;5033642;28;20178;-67
2023/09/20 11:07:57;;;;;;;4.47;3.00;;;;;;;;;;5031716;28;20270;-66
2023/09/20 11:10:23;;;;;;;3.23;2.07;;;;;;;;;;5033438;28;20175;-67
2023/09/20 11:12:54;;;;;;;3.80;2.30;;;;;;;;;;5033355;28;20297;-67
2023/09/20 11:15:20;;;;;;;5.77;2.70;;;;;;;;;;5032161;28;20174;-66
2023/09/20 11:17:47;;;;;;;4.10;2.10;;;;;;;;;;5033313;28;20179;-66
2023/09/20 11:20:13;;;;;;;2.00;1.67;;;;;;;;;;5033397;28;20237;-69
2023/09/20 11:22:41;;;;;;;2.17;1.60;;;;;;;;;;5033008;28;20206;-66
2023/09/20 11:25:07;;;;;;;4.20;1.80;;;;;;;;;;5031776;28;20227;-67
2023/09/20 11:27:34;;;;;;;2.80;2.10;;;;;;;;;;5031864;28;20225;-66
2023/09/20 11:30:08;;;;;;;2.67;1.83;;;;;;;;;;5031894;28;20181;-67
2023/09/20 11:32:34;;;;;;;2.83;2.00;;;;;;;;;;5032505;28;20284;-67
2023/09/20 11:35:01;;;;;;;3.90;1.80;;;;;;;;;;5033101;28;20179;-67
2023/09/20 11:37:32;;;;;;;2.93;2.00;;;;;;;;;;5031708;28;20179;-66
2023/09/20 11:40:00;;;;;;;4.50;2.17;;;;;;;;;;5033331;28;20209;-67
2023/09/20 11:42:27;;;;;;;2.70;1.70;;;;;;;;;;5031536;28;20676;-67
2023/09/20 11:45:03;;;;;;;2.80;1.97;;;;;;;;;;5032972;28;20171;-65
2023/09/20 11:47:37;;;;;;;4.97;2.00;;;;;;;;;;5033699;28;20641;-66
2023/09/20 11:50:04;;;;;;;3.83;1.73;;;;;;;;;;5033646;28;20171;-66
2023/09/20 11:52:31;;;;;;;3.73;1.57;;;;;;;;;;5033070;28;20221;-67
2023/09/20 11:54:59;;;;;;;4.23;1.80;;;;;;;;;;5033422;28;20629;-66
2023/09/20 11:57:26;;;;;;;5.93;2.00;;;;;;;;;;5031454;28;20325;-66
2023/09/20 11:59:53;;;;;;;4.50;1.80;;;;;;;;;;5031492;28;20365;-67
2023/09/20 12:02:19;;;;;;;2.30;1.70;;;;;;;;;;5032521;28;20553;-67
2023/09/20 12:04:46;;;;;;;3.70;1.50;;;;;;;;;;5032612;28;20514;-66
2023/09/20 12:07:12;;;;;;;4.10;1.77;;;;;;;;;;5033126;28;20194;-66
2023/09/20 12:09:38;;;;;;;2.67;1.93;;;;;;;;;;5032220;28;20241;-67
2023/09/20 12:12:08;;;;;;;2.60;1.57;;;;;;;;;;5033132;28;20217;-66
2023/09/20 12:14:34;;;;;;;2.83;1.67;;;;;;;;;;5031546;28;20183;-67
2023/09/20 12:17:01;;;;;;;5.53;1.70;;;;;;;;;;5032710;28;20602;-67
2023/09/20 12:19:27;;;;;;;2.43;1.60;;;;;;;;;;5033557;28;20241;-67
2023/09/20 12:21:53;;;;;;;3.37;1.80;;;;;;;;;;5035507;28;20309;-67
2023/09/20 12:24:19;;;;;;;3.83;1.83;;;;;;;;;;5037628;28;20649;-67
2023/09/20 12:26:45;;;;;;;2.97;1.77;;;;;;;;;;5036572;28;20262;-67
2023/09/20 12:29:11;;;;;;;3.33;2.10;;;;;;;;;;5035167;28;20211;-67
2023/09/20 12:31:37;;;;;;;2.87;2.07;;;;;;;;;;5035135;28;20230;-67
2023/09/20 12:34:03;;;;;;;2.50;1.80;;;;;;;;;;5034940;28;20560;-67
2023/09/20 12:36:32;;;;;;;6.73;2.00;;;;;;;;;;5036620;28;20191;-67
2023/09/20 12:39:01;;;;;;;4.13;1.80;;;;;;;;;;5034812;28;20558;-67
2023/09/20 12:41:28;;;;;;;3.33;1.73;;;;;;;;;;5036018;28;20214;-67
2023/09/20 12:43:54;;;;;;;2.67;2.07;;;;;;;;;;5034830;28;20217;-67
2023/09/20 12:46:21;;;;;;;4.30;1.90;;;;;;;;;;5036383;28;20179;-67
2023/09/20 12:48:48;;;;;;;4.37;2.00;;;;;;;;;;5036132;28;20175;-67
2023/09/20 12:51:15;;;;;;;3.03;1.77;;;;;;;;;;5036376;28;20191;-67
2023/09/20 12:53:44;;;;;;;3.67;2.20;;;;;;;;;;5035921;28;20183;-67
2023/09/20 12:56:13;;;;;;;2.37;1.97;;;;;;;;;;5034705;28;20179;-68
2023/09/20 12:58:40;;;;;;;3.13;1.83;;;;;;;;;;5034594;28;20187;-67
2023/09/20 13:01:07;;;;;;;3.03;1.90;;;;;;;;;;5035675;28;20290;-67
2023/09/20 13:03:33;;;;;;;5.93;2.30;;;;;;;;;;5034516;28;20234;-67
2023/09/20 13:05:59;;;;;;;5.57;2.50;;;;;;;;;;5036328;28;20258;-69
2023/09/20 13:08:25;;;;;;;4.37;2.07;;;;;;;;;;5034402;28;20601;-67
2023/09/20 13:10:52;;;;;;;10.10;1.97;;;;;;;;;;5035582;28;20182;-67
2023/09/20 13:13:18;;;;;;;4.67;2.30;;;;;;;;;;5034224;28;20187;-67
2023/09/20 13:15:44;;;;;;;6.83;2.60;;;;;;;;;;5035719;28;20180;-67
2023/09/20 13:18:11;;;;;;;2.27;2.07;;;;;;;;;;5034241;28;20179;-67
2023/09/20 13:20:37;;;;;;;6.00;2.20;;;;;;;;;;5035563;28;20648;-68
2023/09/20 13:23:06;;;;;;;5.17;2.17;;;;;;;;;;5035257;28;20214;-69
2023/09/20 13:25:32;;;;;;;4.50;1.83;;;;;;;;;;5035277;28;20179;-67
2023/09/20 13:27:58;;;;;;;4.03;2.10;;;;;;;;;;5035293;28;20182;-68
2023/09/20 13:30:24;;;;;;;5.43;2.20;;;;;;;;;;5035421;28;20171;-67
2023/09/20 13:32:50;;;;;;;8.33;2.20;;;;;;;;;;5034482;28;20554;-68
2023/09/20 13:35:16;;;;;;;3.67;2.23;;;;;;;;;;5035880;28;20225;-68
2023/09/20 13:37:46;;;;;;;4.20;1.87;;;;;;;;;;5035090;28;20174;-68
2023/09/20 13:40:13;;;;;;;4.07;1.90;;;;;;;;;;5035032;28;20176;-68
2023/09/20 13:42:42;;;;;;;6.97;2.70;;;;;;;;;;5033553;28;20673;-68
2023/09/20 13:45:10;;;;;;;5.27;2.10;;;;;;;;;;5034952;28;20271;-68
2023/09/20 13:47:37;;;;;;;3.30;2.10;;;;;;;;;;5034933;28;20184;-68
2023/09/20 13:50:04;;;;;;;3.50;2.37;;;;;;;;;;5033690;28;20603;-68
2023/09/20 13:52:30;;;;;;;6.80;2.53;;;;;;;;;;5034636;28;20191;-69
2023/09/20 13:54:56;;;;;;;6.50;2.17;;;;;;;;;;5033575;28;20261;-68
2023/09/20 13:57:22;;;;;;;3.03;2.17;;;;;;;;;;5033453;28;20266;-68
2023/09/20 13:59:48;;;;;;;2.27;2.00;;;;;;;;;;5034643;28;20187;-68
2023/09/20 14:02:17;;;;;;;5.20;2.30;;;;;;;;;;5034695;28;20281;-68
2023/09/20 14:04:43;;;;;;;3.70;2.00;;;;;;;;;;5033272;28;20236;-68
2023/09/20 14:07:12;;;;;;;2.13;1.93;;;;;;;;;;5034831;28;20261;-68
2023/09/20 14:09:41;;;;;;;3.40;2.10;;;;;;;;;;5033253;28;20179;-68
2023/09/20 14:12:07;;;;;;;7.77;2.30;;;;;;;;;;5034535;28;20278;-68
2023/09/20 14:14:33;;;;;;;3.47;1.80;;;;;;;;;;5034790;28;20178;-68
2023/09/20 14:16:59;;;;;;;3.00;1.93;;;;;;;;;;5034656;28;20610;-68
2023/09/20 14:19:25;;;;;;;3.77;2.20;;;;;;;;;;5034422;28;20171;-68
2023/09/20 14:21:51;;;;;;;4.50;2.20;;;;;;;;;;5033389;28;20218;-68
2023/09/20 14:24:17;;;;;;;3.23;2.50;;;;;;;;;;5033299;28;20305;-68
2023/09/20 14:26:45;;;;;;;4.33;2.30;;;;;;;;;;5033049;28;20233;-68
2023/09/20 14:29:11;;;;;;;6.03;2.30;;;;;;;;;;5034231;28;20258;-68
2023/09/20 14:31:40;;;;;;;4.83;2.37;;;;;;;;;;5034033;28;20230;-68
2023/09/20 14:34:08;;;;;;;4.63;2.40;;;;;;;;;;5032883;28;20187;-68
2023/09/20 14:36:34;;;;;;;2.60;2.40;;;;;;;;;;5032818;28;20206;-68
2023/09/20 14:39:00;;;;;;;4.07;2.60;;;;;;;;;;5034026;28;20215;-68
2023/09/20 14:41:26;;;;;;;4.10;2.40;;;;;;;;;;5033797;28;20210;-68
2023/09/20 14:43:52;;;;;;;2.50;2.20;;;;;;;;;;5033208;28;20305;-68
2023/09/20 14:46:18;;;;;;;6.70;2.40;;;;;;;;;;5032670;28;20187;-68
2023/09/20 14:48:45;;;;;;;6.67;2.33;;;;;;;;;;5033819;28;20203;-68
2023/09/20 14:51:15;;;;;;;3.07;2.30;;;;;;;;;;5033819;28;20218;-67
2023/09/20 14:53:41;;;;;;;2.77;2.30;;;;;;;;;;5033622;28;20670;-68
2023/09/20 14:56:08;;;;;;;3.97;2.13;;;;;;;;;;5033780;28;20186;-68
2023/09/20 14:58:35;;;;;;;5.40;2.57;;;;;;;;;;5033986;28;20186;-68
2023/09/20 15:01:11;;;;;;;3.53;2.03;;;;;;;;;;5032237;28;20187;-68
2023/09/20 15:03:37;;;;;;;4.33;2.40;;;;;;;;;;5032224;28;20229;-68
2023/09/20 15:06:04;;;;;;;6.00;2.20;;;;;;;;;;5033651;28;20180;-68
2023/09/20 15:08:30;;;;;;;7.93;2.37;;;;;;;;;;5032465;28;20187;-68
2023/09/20 15:10:58;;;;;;;6.03;2.40;;;;;;;;;;5034180;28;20265;-69
2023/09/20 15:13:24;;;;;;;6.03;2.57;;;;;;;;;;5032598;28;20191;-68
2023/09/20 15:15:50;;;;;;;8.57;2.50;;;;;;;;;;5033452;28;20221;-67
2023/09/20 15:18:16;;;;;;;9.87;3.70;;;;;;;;;;5033474;28;20209;-68
2023/09/20 15:20:43;;;;;;;3.97;2.70;;;;;;;;;;5033651;28;20222;-67